Time;durP1;ratioP1;P1;durP2;ratioP2;P2;SDS_P1;SDS_P2;PMS_P1;PMS_P2;Temp;Humidity;BMP_temperature;BMP_pressure;BME280_temperature;BME280_humidity;BME280_pressure;Samples;Min_cycle;Max_cycle;Signal;HPM_P1;HPM_P2
2023/11/24 00:01:46;;;;;;;5.80;2.03;;;11.50;73.10;;;;;;2523484;54;21079;-70
2023/11/24 00:04:13;;;;;;;3.47;1.77;;;11.50;73.10;;;;;;2523226;54;21339;-69
2023/11/24 00:06:39;;;;;;;3.53;1.62;;;11.50;73.10;;;;;;2288464;55;20967;-70
2023/11/24 00:09:06;;;;;;;4.12;2.10;;;11.50;73.00;;;;;;2523502;54;20975;-71
2023/11/24 00:11:34;;;;;;;3.42;1.83;;;11.60;73.10;;;;;;2290504;55;20958;-69
2023/11/24 00:14:00;;;;;;;3.42;1.98;;;11.50;73.00;;;;;;2519269;54;21058;-70
2023/11/24 00:16:27;;;;;;;3.60;1.83;;;11.60;73.00;;;;;;2518001;54;20955;-69
2023/11/24 00:18:54;;;;;;;3.58;1.95;;;11.50;72.90;;;;;;2289505;55;21288;-70
2023/11/24 00:21:21;;;;;;;4.05;2.47;;;11.50;72.80;;;;;;2288728;55;21007;-70
2023/11/24 00:23:48;;;;;;;3.97;1.98;;;11.50;72.80;;;;;;2291997;55;20961;-71
2023/11/24 00:26:17;;;;;;;4.20;2.35;;;11.60;72.80;;;;;;2284838;55;20963;-70
2023/11/24 00:28:43;;;;;;;3.78;2.12;;;11.60;72.80;;;;;;2290526;55;20967;-70
2023/11/24 00:31:10;;;;;;;4.97;2.60;;;11.50;72.60;;;;;;2287686;54;21060;-69
2023/11/24 00:33:36;;;;;;;4.47;2.28;;;11.50;72.60;;;;;;2523016;54;21868;-72
2023/11/24 00:36:03;;;;;;;5.75;2.30;;;11.60;72.60;;;;;;2288719;55;20950;-70
2023/11/24 00:38:30;;;;;;;6.00;2.40;;;11.50;72.50;;;;;;2522707;54;20928;-70
2023/11/24 00:40:56;;;;;;;4.53;2.40;;;11.50;72.50;;;;;;2288781;55;20967;-71
2023/11/24 00:43:23;;;;;;;5.05;2.50;;;11.60;72.50;;;;;;2523231;54;21014;-71
2023/11/24 00:45:49;;;;;;;4.10;2.40;;;11.60;72.50;;;;;;2289315;55;21003;-70
2023/11/24 00:48:16;;;;;;;4.45;2.53;;;11.50;72.30;;;;;;2522960;54;21051;-68
2023/11/24 00:50:46;;;;;;;4.43;2.72;;;11.50;72.20;;;;;;2289081;55;21068;-70
2023/11/24 00:53:12;;;;;;;5.10;3.00;;;11.50;72.20;;;;;;2522373;54;21236;-71
2023/11/24 00:55:38;;;;;;;4.55;2.35;;;11.50;72.20;;;;;;2288350;55;21031;-68
2023/11/24 00:58:05;;;;;;;4.93;2.53;;;11.50;72.20;;;;;;2523166;54;20963;-70
2023/11/24 01:00:32;;;;;;;4.22;2.35;;;11.50;72.20;;;;;;2523104;54;21338;-69
2023/11/24 01:02:59;;;;;;;3.87;2.33;;;11.50;72.20;;;;;;2523454;54;21513;-69
2023/11/24 01:05:28;;;;;;;4.62;2.20;;;11.50;72.20;;;;;;2520145;54;21570;-71
2023/11/24 01:07:55;;;;;;;4.32;2.50;;;11.50;72.20;;;;;;2518732;54;21086;-70
2023/11/24 01:10:21;;;;;;;4.10;2.30;;;11.40;72.20;;;;;;2517607;54;21041;-70
2023/11/24 01:12:48;;;;;;;4.10;2.30;;;11.40;72.20;;;;;;2522559;54;21134;-70
2023/11/24 01:15:14;;;;;;;4.47;2.50;;;11.40;72.20;;;;;;2523216;54;21021;-70
2023/11/24 01:17:41;;;;;;;4.05;2.20;;;11.40;72.20;;;;;;2521894;54;20939;-69
2023/11/24 01:20:09;;;;;;;4.35;2.62;;;11.50;72.30;;;;;;2290005;55;21041;-70
2023/11/24 01:22:36;;;;;;;3.62;2.28;;;11.40;72.20;;;;;;2285138;54;20952;-69
2023/11/24 01:25:02;;;;;;;4.30;2.30;;;11.40;72.20;;;;;;2523618;54;21481;-69
2023/11/24 01:27:28;;;;;;;4.00;2.15;;;11.30;72.10;;;;;;2288846;55;21433;-70
2023/11/24 01:29:57;;;;;;;4.50;2.62;;;11.30;72.10;;;;;;2288496;55;20955;-68
2023/11/24 01:32:23;;;;;;;5.75;2.70;;;11.30;72.10;;;;;;2522702;54;21082;-70
2023/11/24 01:34:52;;;;;;;4.30;2.83;;;11.30;72.10;;;;;;2522909;54;20948;-70
2023/11/24 01:37:20;;;;;;;4.47;2.62;;;11.30;72.00;;;;;;2288092;55;20943;-69
2023/11/24 01:39:46;;;;;;;5.25;2.97;;;11.30;72.00;;;;;;2288387;55;20964;-71
2023/11/24 01:42:14;;;;;;;5.20;3.10;;;11.30;72.10;;;;;;2523067;54;20976;-69
2023/11/24 01:44:42;;;;;;;5.57;3.00;;;11.30;72.10;;;;;;2288571;54;20971;-70
2023/11/24 01:47:09;;;;;;;4.80;2.60;;;11.30;72.10;;;;;;2523119;54;20952;-70
2023/11/24 01:49:36;;;;;;;4.97;3.12;;;11.30;72.10;;;;;;2289819;55;20966;-70
2023/11/24 01:52:03;;;;;;;4.90;2.95;;;11.30;72.10;;;;;;2286534;55;21721;-70
2023/11/24 01:54:33;;;;;;;4.78;2.97;;;11.20;72.00;;;;;;2521764;54;21031;-70
2023/11/24 01:57:01;;;;;;;5.22;3.12;;;11.20;72.10;;;;;;2523786;54;20987;-69
2023/11/24 01:59:27;;;;;;;4.68;2.80;;;11.20;72.10;;;;;;2287284;55;21013;-70
2023/11/24 02:01:54;;;;;;;4.45;2.87;;;11.30;72.30;;;;;;2520141;54;20963;-68
2023/11/24 02:04:21;;;;;;;4.82;2.65;;;11.20;72.20;;;;;;2519685;54;21526;-71
2023/11/24 02:06:48;;;;;;;4.47;2.72;;;11.20;72.30;;;;;;2518567;54;21004;-71
2023/11/24 02:09:16;;;;;;;5.62;2.80;;;11.20;72.40;;;;;;2522409;54;21491;-71
2023/11/24 02:11:43;;;;;;;5.07;2.75;;;11.20;72.50;;;;;;2522336;54;21295;-70
2023/11/24 02:14:11;;;;;;;3.92;2.15;;;11.20;72.50;;;;;;2515809;54;21090;-72
2023/11/24 02:16:37;;;;;;;4.68;2.60;;;11.20;72.50;;;;;;2522731;54;20987;-69
2023/11/24 02:19:04;;;;;;;3.90;2.40;;;11.30;72.60;;;;;;2523601;54;21082;-69
2023/11/24 02:21:39;;;;;;;4.35;2.67;;;11.20;72.60;;;;;;2522500;54;20979;-71
2023/11/24 02:24:06;;;;;;;3.80;2.47;;;11.20;72.40;;;;;;2523102;54;20996;-68
2023/11/24 02:26:41;;;;;;;3.60;2.28;;;11.30;72.80;;;;;;2288532;55;20948;-70
2023/11/24 02:29:09;;;;;;;4.28;2.25;;;11.30;72.60;;;;;;2288904;55;21082;-70
2023/11/24 02:31:35;;;;;;;3.83;2.25;;;11.20;72.70;;;;;;2517410;54;21488;-71
2023/11/24 02:34:02;;;;;;;3.90;2.28;;;11.30;72.90;;;;;;2522975;54;21532;-70
2023/11/24 02:36:30;;;;;;;3.53;2.22;;;11.30;72.90;;;;;;2522531;54;21632;-70
2023/11/24 02:38:57;;;;;;;6.47;2.55;;;11.30;72.90;;;;;;2523300;54;21063;-70
2023/11/24 02:41:25;;;;;;;4.40;2.10;;;11.30;73.00;;;;;;2523145;54;20944;-70
2023/11/24 02:43:52;;;;;;;4.15;1.90;;;11.30;73.00;;;;;;2523785;54;21039;-69
2023/11/24 02:46:19;;;;;;;3.30;1.92;;;11.30;73.00;;;;;;2521479;54;21044;-69
2023/11/24 02:48:50;;;;;;;3.47;1.98;;;11.30;73.00;;;;;;2518270;54;21452;-69
2023/11/24 02:51:18;;;;;;;3.55;1.80;;;11.30;73.00;;;;;;2523056;54;20995;-69
2023/11/24 02:53:47;;;;;;;4.80;2.08;;;11.30;73.00;;;;;;2520998;54;21030;-68
2023/11/24 02:56:13;;;;;;;5.28;1.83;;;11.40;73.00;;;;;;2519554;54;21471;-71
2023/11/24 02:58:39;;;;;;;3.30;1.70;;;11.40;73.10;;;;;;2288478;55;20963;-69
2023/11/24 03:01:08;;;;;;;3.20;1.60;;;11.40;73.10;;;;;;2517502;54;20990;-68
2023/11/24 03:03:39;;;;;;;4.25;1.85;;;11.40;73.10;;;;;;2289045;55;21615;-70
2023/11/24 03:06:06;;;;;;;2.95;1.70;;;11.40;72.90;;;;;;2290612;55;21515;-70
2023/11/24 03:08:35;;;;;;;3.10;1.60;;;11.40;73.00;;;;;;2517263;54;20955;-70
2023/11/24 03:11:06;;;;;;;3.40;1.60;;;11.40;73.10;;;;;;2518553;54;21633;-69
2023/11/24 03:13:33;;;;;;;3.45;1.60;;;11.40;73.10;;;;;;2516999;55;20926;-71
2023/11/24 03:16:04;;;;;;;4.95;1.58;;;11.40;73.10;;;;;;2288588;55;21212;-70
2023/11/24 03:18:33;;;;;;;3.15;1.73;;;11.50;73.20;;;;;;2522495;54;20958;-69
2023/11/24 03:21:00;;;;;;;3.08;1.60;;;11.50;73.20;;;;;;2288408;55;20984;-70
2023/11/24 03:23:26;;;;;;;3.15;1.50;;;11.50;73.20;;;;;;2519064;54;20966;-70
2023/11/24 03:25:53;;;;;;;4.37;1.58;;;11.50;73.10;;;;;;2521023;54;21007;-69
2023/11/24 03:28:20;;;;;;;2.87;1.20;;;11.50;73.10;;;;;;2522636;54;21955;-70
2023/11/24 03:30:46;;;;;;;3.30;1.55;;;11.50;73.10;;;;;;2287749;55;20947;-70
2023/11/24 03:33:21;;;;;;;3.55;1.60;;;11.50;73.10;;;;;;2519069;54;20999;-69
2023/11/24 03:35:47;;;;;;;3.35;1.37;;;11.50;72.90;;;;;;2521795;54;20956;-70
2023/11/24 03:38:14;;;;;;;3.03;1.35;;;11.50;73.00;;;;;;2522623;54;20956;-71
2023/11/24 03:40:40;;;;;;;2.80;1.37;;;11.50;73.10;;;;;;2523054;54;21047;-70
2023/11/24 03:43:06;;;;;;;3.33;1.52;;;11.50;73.10;;;;;;2288950;55;21004;-70
2023/11/24 03:45:33;;;;;;;2.87;1.33;;;11.60;73.20;;;;;;2288226;55;21038;-69
2023/11/24 03:48:02;;;;;;;2.62;1.35;;;11.50;73.10;;;;;;2288505;55;21071;-70
2023/11/24 03:50:29;;;;;;;3.25;1.23;;;11.60;73.20;;;;;;2523175;54;21023;-69
2023/11/24 03:52:56;;;;;;;2.62;1.25;;;11.60;73.10;;;;;;2288547;55;20999;-71
2023/11/24 03:55:22;;;;;;;2.60;1.30;;;11.60;73.20;;;;;;2520073;54;21013;-71
2023/11/24 03:57:51;;;;;;;3.30;1.55;;;11.60;73.10;;;;;;2286513;55;21037;-69
2023/11/24 04:00:17;;;;;;;2.60;1.30;;;11.60;73.10;;;;;;2522847;54;20940;-68
2023/11/24 04:02:44;;;;;;;3.33;1.20;;;11.60;73.20;;;;;;2517130;54;20978;-71
2023/11/24 04:05:10;;;;;;;2.65;1.37;;;11.60;73.20;;;;;;2288942;54;20943;-70
2023/11/24 04:07:38;;;;;;;2.45;1.12;;;11.60;73.20;;;;;;2288672;55;20947;-70
2023/11/24 04:10:05;;;;;;;2.80;1.45;;;11.70;73.30;;;;;;2289137;55;21516;-70
2023/11/24 04:12:33;;;;;;;2.90;1.30;;;11.60;73.20;;;;;;2523415;54;20955;-69
2023/11/24 04:14:59;;;;;;;3.05;1.23;;;11.70;73.30;;;;;;2523424;54;21671;-71
2023/11/24 04:17:25;;;;;;;2.70;1.30;;;11.70;73.30;;;;;;2288760;55;21027;-70
2023/11/24 04:19:52;;;;;;;2.30;1.20;;;11.70;73.30;;;;;;2288170;55;20962;-69
2023/11/24 04:22:18;;;;;;;2.45;1.27;;;11.60;73.40;;;;;;2523134;54;20944;-69
2023/11/24 04:24:45;;;;;;;2.50;1.10;;;11.70;73.30;;;;;;2523122;54;21904;-71
2023/11/24 04:27:11;;;;;;;2.33;1.00;;;11.70;73.30;;;;;;2522997;54;21240;-70
2023/11/24 04:29:38;;;;;;;2.47;1.02;;;11.70;73.20;;;;;;2522974;54;21375;-69
2023/11/24 04:32:05;;;;;;;2.47;1.00;;;11.70;73.30;;;;;;2522723;54;20975;-69
2023/11/24 04:34:31;;;;;;;2.05;0.93;;;11.70;73.30;;;;;;2517173;54;20942;-70
2023/11/24 04:36:59;;;;;;;2.15;0.93;;;11.70;73.30;;;;;;2522830;54;20960;-71
2023/11/24 04:39:26;;;;;;;1.67;0.82;;;11.70;73.20;;;;;;2522653;54;21079;-69
2023/11/24 04:41:52;;;;;;;2.05;1.02;;;11.70;73.20;;;;;;2287894;55;21526;-70
2023/11/24 04:44:20;;;;;;;2.30;0.82;;;11.70;73.20;;;;;;2289174;55;21106;-70
2023/11/24 04:46:46;;;;;;;1.83;0.80;;;11.70;73.20;;;;;;2518475;54;20987;-71
2023/11/24 04:49:14;;;;;;;2.08;0.90;;;11.70;73.20;;;;;;2288819;55;21007;-69
2023/11/24 04:51:41;;;;;;;1.95;0.80;;;11.70;73.10;;;;;;2517147;54;21010;-71
2023/11/24 04:54:09;;;;;;;2.12;0.95;;;11.70;73.10;;;;;;2289024;54;20975;-68
2023/11/24 04:56:35;;;;;;;2.20;0.90;;;11.70;73.10;;;;;;2522775;54;21027;-69
2023/11/24 04:59:02;;;;;;;1.48;0.70;;;11.70;73.00;;;;;;2288134;55;21019;-69
2023/11/24 05:01:28;;;;;;;1.62;0.73;;;11.70;73.10;;;;;;2522483;54;20967;-69
2023/11/24 05:03:57;;;;;;;2.47;1.00;;;11.70;73.00;;;;;;2288120;55;20944;-69
2023/11/24 05:06:24;;;;;;;1.75;0.80;;;11.70;73.00;;;;;;2522741;54;21107;-69
2023/11/24 05:08:52;;;;;;;1.80;0.80;;;11.70;73.00;;;;;;2519873;54;21097;-70
2023/11/24 05:11:19;;;;;;;1.40;0.68;;;11.70;72.90;;;;;;2521446;54;21754;-69
2023/11/24 05:13:47;;;;;;;1.60;0.60;;;11.70;73.00;;;;;;2287870;55;21946;-71
2023/11/24 05:16:13;;;;;;;2.00;0.60;;;11.70;73.00;;;;;;2518571;54;20961;-70
2023/11/24 05:18:40;;;;;;;1.02;0.55;;;11.70;73.00;;;;;;2522578;54;21115;-70
2023/11/24 05:21:06;;;;;;;1.77;0.80;;;11.70;73.00;;;;;;2288423;55;20947;-71
2023/11/24 05:23:33;;;;;;;1.10;0.55;;;11.70;73.00;;;;;;2288347;55;21026;-70
2023/11/24 05:26:03;;;;;;;1.23;0.60;;;11.70;73.00;;;;;;2521660;54;21106;-69
2023/11/24 05:28:29;;;;;;;1.58;0.60;;;11.60;73.00;;;;;;2522010;54;21857;-71
2023/11/24 05:30:59;;;;;;;1.27;0.50;;;11.60;72.90;;;;;;2517243;54;20971;-69
2023/11/24 05:33:27;;;;;;;1.50;0.60;;;11.70;73.00;;;;;;2288718;55;20954;-71
2023/11/24 05:35:53;;;;;;;1.27;0.52;;;11.60;73.00;;;;;;2287984;55;21731;-68
2023/11/24 05:38:19;;;;;;;1.10;0.50;;;11.70;73.10;;;;;;2523220;54;21503;-71
2023/11/24 05:40:49;;;;;;;1.50;0.50;;;11.60;73.10;;;;;;2522941;54;20942;-72
2023/11/24 05:43:16;;;;;;;1.35;0.50;;;11.60;73.10;;;;;;2523516;54;20987;-69
2023/11/24 05:45:43;;;;;;;0.80;0.40;;;11.60;73.10;;;;;;2523073;54;20940;-71
2023/11/24 05:48:09;;;;;;;1.17;0.50;;;11.60;73.10;;;;;;2521948;54;21791;-69
2023/11/24 05:50:35;;;;;;;0.85;0.47;;;11.60;73.10;;;;;;2288379;55;21004;-69
2023/11/24 05:53:02;;;;;;;1.10;0.40;;;11.60;73.10;;;;;;2522901;54;21053;-70
2023/11/24 05:55:28;;;;;;;0.77;0.30;;;11.60;73.10;;;;;;2289305;55;21483;-71
2023/11/24 05:57:56;;;;;;;0.50;0.30;;;11.60;73.10;;;;;;2286916;55;21761;-70
2023/11/24 06:00:22;;;;;;;0.85;0.40;;;11.60;73.10;;;;;;2491473;54;20928;-69
2023/11/24 06:02:50;;;;;;;1.62;0.60;;;11.60;73.10;;;;;;2523067;54;20971;-70
2023/11/24 06:05:18;;;;;;;2.33;0.98;;;11.60;73.10;;;;;;2522415;54;20948;-69
2023/11/24 06:07:45;;;;;;;1.48;0.68;;;11.60;73.10;;;;;;2287920;55;20957;-69
2023/11/24 06:10:12;;;;;;;1.25;0.60;;;11.60;73.10;;;;;;2519218;54;20997;-71
2023/11/24 06:12:39;;;;;;;1.48;0.50;;;11.60;73.10;;;;;;2519314;54;21367;-70
2023/11/24 06:15:08;;;;;;;1.20;0.45;;;11.60;73.20;;;;;;2288005;55;20990;-70
2023/11/24 06:17:35;;;;;;;0.82;0.35;;;11.60;73.20;;;;;;2522367;54;20980;-72
2023/11/24 06:20:06;;;;;;;1.08;0.47;;;11.60;73.20;;;;;;2289249;54;21026;-70
2023/11/24 06:22:32;;;;;;;1.58;0.52;;;11.60;73.20;;;;;;2520394;54;21019;-68
2023/11/24 06:24:59;;;;;;;0.93;0.40;;;11.60;73.30;;;;;;2288317;55;21196;-71
2023/11/24 06:27:25;;;;;;;0.52;0.30;;;11.60;73.30;;;;;;2523313;54;21071;-70
2023/11/24 06:29:51;;;;;;;1.00;0.40;;;11.60;74.10;;;;;;2287933;55;21013;-70
2023/11/24 06:32:18;;;;;;;3.60;0.88;;;11.70;73.50;;;;;;2523010;54;21058;-71
2023/11/24 06:34:44;;;;;;;2.40;0.70;;;11.70;73.50;;;;;;2523040;54;20967;-72
2023/11/24 06:37:10;;;;;;;1.90;0.50;;;11.60;73.40;;;;;;2287425;55;21018;-71
2023/11/24 06:39:37;;;;;;;1.15;0.40;;;11.70;73.50;;;;;;2522512;54;21027;-69
2023/11/24 06:42:04;;;;;;;1.12;0.40;;;11.70;73.50;;;;;;2290183;55;20979;-70
2023/11/24 06:44:31;;;;;;;0.52;0.30;;;11.70;73.50;;;;;;2523123;54;21012;-69
2023/11/24 06:47:00;;;;;;;0.47;0.20;;;11.70;73.50;;;;;;2518380;54;21291;-68
2023/11/24 06:49:36;;;;;;;1.23;0.40;;;11.70;73.50;;;;;;2491244;54;21047;-70
2023/11/24 06:52:03;;;;;;;1.15;0.43;;;11.70;73.30;;;;;;2288217;55;20987;-69
2023/11/24 06:54:29;;;;;;;1.08;0.43;;;11.70;73.50;;;;;;2523274;54;20971;-70
2023/11/24 06:56:57;;;;;;;0.75;0.40;;;11.70;73.50;;;;;;2288489;55;20987;-71
2023/11/24 06:59:23;;;;;;;0.88;0.40;;;11.70;73.60;;;;;;2288567;55;21050;-71
2023/11/24 07:01:51;;;;;;;0.88;0.40;;;11.70;73.60;;;;;;2522980;54;20967;-68
2023/11/24 07:04:18;;;;;;;1.35;0.50;;;11.70;73.60;;;;;;2522676;54;21571;-71
2023/11/24 07:06:45;;;;;;;0.90;0.40;;;11.80;73.70;;;;;;2287870;55;20931;-71
2023/11/24 07:09:11;;;;;;;0.98;0.40;;;11.70;73.60;;;;;;2522532;54;21063;-70
2023/11/24 07:11:38;;;;;;;1.48;0.60;;;11.70;73.50;;;;;;2288611;55;21051;-70
2023/11/24 07:14:05;;;;;;;1.98;0.50;;;11.70;73.50;;;;;;2288792;55;21078;-70
2023/11/24 07:16:32;;;;;;;2.00;0.50;;;11.70;73.40;;;;;;2522931;54;20976;-70
2023/11/24 07:18:59;;;;;;;1.10;0.40;;;11.70;73.50;;;;;;2288638;55;20943;-69
2023/11/24 07:21:25;;;;;;;1.23;0.40;;;11.70;73.40;;;;;;2521530;54;22478;-71
2023/11/24 07:23:52;;;;;;;0.90;0.40;;;11.70;73.40;;;;;;2288078;55;21740;-71
2023/11/24 07:26:18;;;;;;;1.33;0.45;;;11.70;73.40;;;;;;2287571;54;20956;-71
2023/11/24 07:28:45;;;;;;;2.25;0.60;;;11.80;73.50;;;;;;2287568;55;21011;-71
2023/11/24 07:31:14;;;;;;;1.83;0.60;;;11.70;73.40;;;;;;2521876;54;21015;-71
2023/11/24 07:33:41;;;;;;;0.88;0.40;;;11.80;73.60;;;;;;2522792;54;21019;-69
2023/11/24 07:36:10;;;;;;;1.27;0.45;;;11.80;73.50;;;;;;2285876;55;21034;-69
2023/11/24 07:38:37;;;;;;;1.02;0.47;;;11.80;73.50;;;;;;2522670;54;20947;-69
2023/11/24 07:41:04;;;;;;;1.27;0.47;;;11.70;73.50;;;;;;2523217;54;21888;-71
2023/11/24 07:43:34;;;;;;;0.43;0.20;;;11.70;73.60;;;;;;2523276;54;20940;-70
2023/11/24 07:46:01;;;;;;;1.55;0.60;;;11.70;73.60;;;;;;2288044;55;20943;-72
2023/11/24 07:48:28;;;;;;;3.58;0.70;;;11.70;73.60;;;;;;2522986;54;21054;-70
2023/11/24 07:50:54;;;;;;;2.62;0.68;;;11.70;73.60;;;;;;2523015;54;21123;-70
2023/11/24 07:53:20;;;;;;;1.90;0.70;;;11.70;73.70;;;;;;2522116;54;21095;-72
2023/11/24 07:55:47;;;;;;;2.42;0.98;;;11.70;73.70;;;;;;2522730;54;20955;-69
2023/11/24 07:58:19;;;;;;;2.87;0.95;;;11.70;73.60;;;;;;2521373;54;20984;-71
2023/11/24 08:00:46;;;;;;;3.53;1.30;;;11.80;73.70;;;;;;2522308;54;20979;-71
2023/11/24 08:03:13;;;;;;;1.62;0.60;;;11.70;73.50;;;;;;2522868;54;21855;-70
2023/11/24 08:05:42;;;;;;;1.73;0.60;;;11.70;73.50;;;;;;2288320;55;21086;-69
2023/11/24 08:08:09;;;;;;;1.85;0.75;;;11.70;73.30;;;;;;2288000;55;20987;-71
2023/11/24 08:10:37;;;;;;;1.37;0.50;;;11.70;73.30;;;;;;2522628;54;21488;-71
2023/11/24 08:13:03;;;;;;;1.73;0.60;;;11.70;73.20;;;;;;2288463;55;20940;-70
2023/11/24 08:15:29;;;;;;;1.33;0.45;;;11.70;73.20;;;;;;2523300;54;21036;-72
2023/11/24 08:17:57;;;;;;;2.75;1.40;;;11.70;73.20;;;;;;2288849;55;21127;-70
2023/11/24 08:20:23;;;;;;;1.95;0.90;;;11.70;73.30;;;;;;2287726;55;20995;-70
2023/11/24 08:22:51;;;;;;;2.60;1.00;;;11.70;73.50;;;;;;2523202;54;20959;-70
2023/11/24 08:25:20;;;;;;;2.35;0.90;;;11.70;73.60;;;;;;2523188;54;21435;-70
2023/11/24 08:27:48;;;;;;;2.45;0.90;;;11.60;73.60;;;;;;2288432;55;20971;-70
2023/11/24 08:30:14;;;;;;;2.35;1.20;;;11.70;73.80;;;;;;2523155;54;20983;-70
2023/11/24 08:32:41;;;;;;;4.50;2.90;;;11.60;73.70;;;;;;2523093;54;21030;-71
2023/11/24 08:35:09;;;;;;;5.10;2.22;;;11.70;73.70;;;;;;2522971;54;20959;-72
2023/11/24 08:37:36;;;;;;;2.60;1.60;;;11.70;73.80;;;;;;2523224;54;21461;-72
2023/11/24 08:40:05;;;;;;;2.40;1.20;;;11.70;73.70;;;;;;2522611;54;20960;-69
2023/11/24 08:42:33;;;;;;;2.92;1.73;;;11.60;73.70;;;;;;2523603;54;21066;-70
2023/11/24 08:45:00;;;;;;;3.17;1.73;;;11.70;73.90;;;;;;2523294;54;21118;-69
2023/11/24 08:47:27;;;;;;;2.80;1.62;;;11.70;74.00;;;;;;2522351;54;21935;-71
2023/11/24 08:49:57;;;;;;;3.60;1.70;;;11.60;74.00;;;;;;2523540;54;21437;-73
2023/11/24 08:52:25;;;;;;;2.50;1.20;;;11.70;74.20;;;;;;2522747;54;20956;-70
2023/11/24 08:54:51;;;;;;;2.50;1.20;;;11.70;74.30;;;;;;2523502;54;20962;-73
2023/11/24 08:57:18;;;;;;;3.15;1.55;;;11.70;74.30;;;;;;2288213;55;20967;-71
2023/11/24 08:59:44;;;;;;;4.03;1.80;;;11.70;74.40;;;;;;2266090;55;22031;-70
2023/11/24 09:02:11;;;;;;;3.10;1.52;;;11.70;74.40;;;;;;2518602;54;21031;-73
2023/11/24 09:04:38;;;;;;;3.40;1.25;;;11.80;74.60;;;;;;2286304;55;20960;-72
2023/11/24 09:07:05;;;;;;;2.30;1.10;;;11.80;74.50;;;;;;2517590;54;20985;-69
2023/11/24 09:09:33;;;;;;;2.17;0.90;;;11.80;75.20;;;;;;2519747;54;21209;-71
2023/11/24 09:11:59;;;;;;;2.40;1.00;;;11.80;74.50;;;;;;2288142;55;20972;-70
2023/11/24 09:14:25;;;;;;;1.90;0.82;;;11.80;74.50;;;;;;2288682;55;22007;-71
2023/11/24 09:16:52;;;;;;;1.73;0.75;;;11.90;74.60;;;;;;2288533;55;20979;-70
2023/11/24 09:19:18;;;;;;;2.40;1.00;;;11.90;74.50;;;;;;2522948;54;20968;-73
2023/11/24 09:21:48;;;;;;;3.53;1.15;;;11.90;74.50;;;;;;2522954;54;20951;-73
2023/11/24 09:24:15;;;;;;;2.37;1.00;;;11.90;74.50;;;;;;2522848;54;20999;-69
2023/11/24 09:26:45;;;;;;;2.65;1.12;;;11.90;74.50;;;;;;2517633;54;21610;-73
2023/11/24 09:29:12;;;;;;;2.28;1.15;;;12.00;74.50;;;;;;2522292;54;21020;-71
2023/11/24 09:31:38;;;;;;;2.87;1.45;;;12.00;74.50;;;;;;2523285;54;21011;-73
2023/11/24 09:34:05;;;;;;;2.28;1.25;;;12.00;74.40;;;;;;2288883;55;21008;-73
2023/11/24 09:36:32;;;;;;;2.87;1.20;;;12.00;74.30;;;;;;2288013;55;20989;-69
2023/11/24 09:38:59;;;;;;;2.72;1.08;;;12.00;74.30;;;;;;2290616;55;21029;-72
2023/11/24 09:41:26;;;;;;;4.28;2.20;;;12.00;74.20;;;;;;2518305;54;21067;-72
2023/11/24 09:43:53;;;;;;;5.07;2.30;;;12.00;74.20;;;;;;2523130;54;21023;-70
2023/11/24 09:46:21;;;;;;;5.25;2.03;;;12.10;74.30;;;;;;2288721;55;20984;-71
2023/11/24 09:48:47;;;;;;;3.05;1.50;;;12.10;74.40;;;;;;2522580;54;20975;-71
2023/11/24 09:51:16;;;;;;;3.67;1.60;;;12.10;74.40;;;;;;2522775;54;20943;-72
2023/11/24 09:53:44;;;;;;;4.72;1.50;;;12.10;74.50;;;;;;2288782;55;20947;-71
2023/11/24 09:56:12;;;;;;;3.50;1.15;;;12.10;74.50;;;;;;2288019;55;20963;-70
2023/11/24 09:58:38;;;;;;;2.40;1.05;;;12.10;74.40;;;;;;2517823;54;21033;-73
2023/11/24 10:01:26;;;;;;;3.12;1.10;;;12.10;74.40;;;;;;2288623;55;20964;-71
2023/11/24 10:03:53;;;;;;;4.37;1.30;;;12.10;73.80;;;;;;2289047;55;20967;-71
2023/11/24 10:06:20;;;;;;;7.85;1.00;;;12.10;73.90;;;;;;2288602;56;21416;-72
2023/11/24 10:08:47;;;;;;;9.95;1.55;;;12.10;73.40;;;;;;2288791;55;21456;-70
2023/11/24 10:11:15;;;;;;;7.22;1.48;;;12.20;73.30;;;;;;2288257;55;20955;-71
2023/11/24 10:13:42;;;;;;;4.57;1.00;;;12.10;73.00;;;;;;2519376;54;21591;-70
2023/11/24 10:16:10;;;;;;;5.43;1.10;;;12.10;72.80;;;;;;2521486;54;21004;-72
2023/11/24 10:18:38;;;;;;;8.13;1.48;;;12.10;72.70;;;;;;2522594;54;20995;-72
2023/11/24 10:21:07;;;;;;;4.05;1.00;;;12.10;72.70;;;;;;2522846;54;20988;-72
2023/11/24 10:23:36;;;;;;;3.10;1.08;;;12.00;72.50;;;;;;2288260;55;21023;-72
2023/11/24 10:26:06;;;;;;;4.37;0.95;;;12.00;72.60;;;;;;2288744;55;21039;-70
2023/11/24 10:28:32;;;;;;;3.72;0.90;;;12.00;72.60;;;;;;2288252;55;21011;-72
2023/11/24 10:31:05;;;;;;;5.72;1.45;;;12.00;72.60;;;;;;2522296;54;21040;-73
2023/11/24 10:33:34;;;;;;;6.18;1.37;;;12.00;72.70;;;;;;2522609;54;20955;-69
2023/11/24 10:36:04;;;;;;;2.75;1.20;;;11.90;72.80;;;;;;2519807;54;20970;-71
2023/11/24 10:38:32;;;;;;;7.35;1.90;;;11.90;72.90;;;;;;2521618;54;20995;-69
2023/11/24 10:41:00;;;;;;;9.15;3.53;;;11.90;73.00;;;;;;2292135;55;20975;-72
2023/11/24 10:43:31;;;;;;;8.68;2.87;;;11.90;72.90;;;;;;2517077;54;20971;-72
2023/11/24 10:46:02;;;;;;;7.87;2.50;;;11.90;72.80;;;;;;2523278;54;21012;-69
2023/11/24 10:48:42;;;;;;;5.68;1.73;;;11.90;72.70;;;;;;2522756;54;21071;-71
2023/11/24 10:51:27;;;;;;;7.60;1.92;;;11.90;72.20;;;;;;2288064;55;20992;-69
2023/11/24 10:53:56;;;;;;;5.93;1.50;;;11.90;72.30;;;;;;2522931;54;20980;-70
2023/11/24 10:56:25;;;;;;;5.07;1.45;;;11.90;72.40;;;;;;2288375;55;21018;-70
2023/11/24 10:58:55;;;;;;;5.65;1.30;;;11.90;72.00;;;;;;2266014;56;21079;-72
2023/11/24 11:01:24;;;;;;;3.45;1.00;;;11.90;72.00;;;;;;2522324;54;20972;-70
2023/11/24 11:03:59;;;;;;;3.90;1.10;;;11.80;71.70;;;;;;2288717;55;21059;-72
2023/11/24 11:06:41;;;;;;;3.75;1.00;;;11.80;71.80;;;;;;2522477;54;21000;-71
2023/11/24 11:09:23;;;;;;;7.32;1.37;;;11.80;71.40;;;;;;2523389;54;20935;-70
2023/11/24 11:12:29;;;;;;;7.20;1.40;;;11.80;71.70;;;;;;2523859;54;21406;-72
2023/11/24 11:14:56;;;;;;;7.35;1.80;;;11.80;71.10;;;;;;2518247;54;20974;-70
2023/11/24 11:17:25;;;;;;;4.80;1.17;;;11.70;71.90;;;;;;2523523;54;21028;-70
2023/11/24 11:20:06;;;;;;;5.62;1.50;;;11.80;72.10;;;;;;2518747;54;20940;-73
2023/11/24 11:22:34;;;;;;;3.72;1.02;;;11.80;71.90;;;;;;2523188;54;20959;-69
2023/11/24 11:25:36;;;;;;;5.32;1.25;;;11.80;72.20;;;;;;2288969;55;21043;-70
2023/11/24 11:31:37;;;;;;;8.57;1.48;;;11.90;71.00;;;;;;2288828;55;21007;-71
2023/11/24 11:34:16;;;;;;;3.30;0.75;;;11.80;70.80;;;;;;2288618;55;21041;-70
2023/11/24 11:37:42;;;;;;;4.35;1.00;;;11.90;71.70;;;;;;2288287;55;20976;-71
2023/11/24 11:40:12;;;;;;;3.55;0.90;;;11.90;71.30;;;;;;2523333;54;21433;-70
2023/11/24 11:42:51;;;;;;;4.60;0.82;;;11.70;71.40;;;;;;2522651;54;21440;-71
2023/11/24 11:45:29;;;;;;;4.85;1.05;;;11.80;71.10;;;;;;2289671;55;21737;-70
2023/11/24 11:48:02;;;;;;;7.20;1.30;;;11.80;71.70;;;;;;2492423;54;20980;-70
2023/11/24 11:50:29;;;;;;;5.35;1.25;;;11.80;71.40;;;;;;2518256;54;21833;-71
2023/11/24 11:53:00;;;;;;;5.80;1.33;;;11.80;71.50;;;;;;2521808;54;20964;-70
2023/11/24 11:55:28;;;;;;;9.23;2.12;;;11.80;71.50;;;;;;2522453;54;21047;-70
2023/11/24 11:58:00;;;;;;;8.00;1.55;;;11.80;71.50;;;;;;2288628;55;20971;-70
2023/11/24 12:00:27;;;;;;;4.97;1.33;;;11.80;71.50;;;;;;2522657;54;21248;-71
2023/11/24 12:02:54;;;;;;;6.87;1.60;;;11.80;71.70;;;;;;2523540;54;21303;-71
2023/11/24 12:05:22;;;;;;;6.12;2.20;;;11.80;71.80;;;;;;2522981;54;20952;-71
2023/11/24 12:07:49;;;;;;;4.35;1.50;;;11.80;71.80;;;;;;2288815;55;21043;-71
2023/11/24 12:10:17;;;;;;;7.55;2.05;;;11.80;71.70;;;;;;2288859;55;21435;-71
2023/11/24 12:12:44;;;;;;;7.53;1.70;;;11.80;71.70;;;;;;2288006;55;21012;-71
2023/11/24 12:15:13;;;;;;;5.65;1.52;;;11.80;71.60;;;;;;2523547;54;20971;-68
2023/11/24 12:17:40;;;;;;;6.05;1.30;;;11.80;71.50;;;;;;2288684;55;21757;-71
2023/11/24 12:20:10;;;;;;;3.92;1.12;;;11.80;71.30;;;;;;2523743;54;21098;-72
2023/11/24 12:22:39;;;;;;;4.97;1.35;;;11.80;71.00;;;;;;2288419;55;20944;-70
2023/11/24 12:25:10;;;;;;;3.35;1.17;;;11.80;70.60;;;;;;2518082;54;21022;-69
2023/11/24 12:27:37;;;;;;;5.33;1.20;;;11.80;70.40;;;;;;2523682;54;20944;-69
2023/11/24 12:30:04;;;;;;;3.80;0.80;;;11.80;70.10;;;;;;2523542;54;21039;-69
2023/11/24 12:32:34;;;;;;;5.82;1.08;;;11.70;69.90;;;;;;2522205;54;21003;-72
2023/11/24 12:35:00;;;;;;;4.05;1.42;;;11.70;69.70;;;;;;2523584;54;20960;-69
2023/11/24 12:37:27;;;;;;;5.68;1.30;;;11.70;69.80;;;;;;2287508;55;20994;-70
2023/11/24 12:39:53;;;;;;;5.75;1.20;;;11.70;69.90;;;;;;2288585;55;20975;-71
2023/11/24 12:42:22;;;;;;;5.90;1.33;;;11.60;69.70;;;;;;2288649;55;21011;-68
2023/11/24 12:44:50;;;;;;;6.37;1.20;;;11.60;69.60;;;;;;2522337;54;21755;-69
2023/11/24 12:47:19;;;;;;;5.50;1.17;;;11.60;69.70;;;;;;2523570;54;21075;-70
2023/11/24 12:49:53;;;;;;;5.15;1.20;;;11.60;69.70;;;;;;2283283;55;21939;-70
2023/11/24 12:52:21;;;;;;;3.60;1.23;;;11.60;69.50;;;;;;2517034;54;20962;-70
2023/11/24 12:54:49;;;;;;;3.03;1.08;;;11.60;69.80;;;;;;2288129;54;21456;-70
2023/11/24 12:57:16;;;;;;;6.87;1.35;;;11.50;69.80;;;;;;2288857;55;21933;-72